Time;durP1;ratioP1;P1;durP2;ratioP2;P2;SDS_P1;SDS_P2;PMS_P1;PMS_P2;Temp;Humidity;BMP_temperature;BMP_pressure;BME280_temperature;BME280_humidity;BME280_pressure;Samples;Min_cycle;Max_cycle;Signal;HPM_P1;HPM_P2
2021/12/26 00:00:20;;;;;;;5.72;3.90;;;;;;;;;;143744;617;46020;-63
2021/12/26 00:02:47;;;;;;;7.05;3.90;;;;;;;;;;143739;573;47020;-63
2021/12/26 00:05:14;;;;;;;6.40;4.35;;;;;;;;;;143740;572;46032;-62
2021/12/26 00:07:41;;;;;;;6.60;4.80;;;;;;;;;;143740;632;45913;-62
2021/12/26 00:10:11;;;;;;;6.95;4.68;;;;;;;;;;143744;576;45019;-63
2021/12/26 00:12:38;;;;;;;8.35;4.80;;;;;;;;;;143739;600;47029;-63
2021/12/26 00:15:07;;;;;;;6.12;4.85;;;;;;;;;;143737;658;47012;-63
2021/12/26 00:17:34;;;;;;;8.95;5.30;;;;;;;;;;143743;566;45021;-63
2021/12/26 00:20:01;;;;;;;8.73;5.20;;;;;;;;;;143743;589;46020;-62
2021/12/26 00:22:28;;;;;;;7.12;5.32;;;;;;;;;;143739;619;47022;-62
2021/12/26 00:24:55;;;;;;;8.25;5.15;;;;;;;;;;143739;609;46012;-62
2021/12/26 00:27:22;;;;;;;12.25;5.12;;;;;;;;;;143741;615;45911;-62
2021/12/26 00:29:49;;;;;;;7.53;4.93;;;;;;;;;;143743;586;46020;-62
2021/12/26 00:32:16;;;;;;;8.10;5.62;;;;;;;;;;143739;597;47021;-63
2021/12/26 00:34:44;;;;;;;10.50;5.75;;;;;;;;;;143740;575;46012;-61
2021/12/26 00:37:12;;;;;;;7.15;5.32;;;;;;;;;;143742;564;45911;-62
2021/12/26 00:39:39;;;;;;;8.38;5.93;;;;;;;;;;143745;623;46021;-63
2021/12/26 00:42:06;;;;;;;6.37;4.47;;;;;;;;;;143738;569;47022;-63
2021/12/26 00:44:38;;;;;;;8.65;5.40;;;;;;;;;;143739;618;47013;-62
2021/12/26 00:47:09;;;;;;;6.47;4.80;;;;;;;;;;143742;590;45021;-63
2021/12/26 00:49:36;;;;;;;8.73;6.07;;;;;;;;;;143744;598;46020;-63
2021/12/26 00:52:04;;;;;;;8.35;5.00;;;;;;;;;;143738;603;47022;-62
2021/12/26 00:54:32;;;;;;;7.75;5.43;;;;;;;;;;143738;588;47023;-62
2021/12/26 00:57:00;;;;;;;8.70;5.53;;;;;;;;;;143742;564;45911;-64
2021/12/26 00:59:27;;;;;;;9.43;6.07;;;;;;;;;;143744;725;46020;-63
2021/12/26 01:01:56;;;;;;;7.70;5.90;;;;;;;;;;143739;589;47021;-61
2021/12/26 01:04:23;;;;;;;10.23;5.40;;;;;;;;;;143739;608;47012;-63
2021/12/26 01:06:50;;;;;;;8.07;5.22;;;;;;;;;;143739;654;45911;-62
2021/12/26 01:09:23;;;;;;;8.15;4.97;;;;;;;;;;143744;598;45033;-62
2021/12/26 01:11:53;;;;;;;8.43;5.80;;;;;;;;;;143739;584;47022;-63
2021/12/26 01:14:30;;;;;;;9.93;6.37;;;;;;;;;;143738;570;47012;-62
2021/12/26 01:17:05;;;;;;;9.10;5.97;;;;;;;;;;143742;586;45911;-62
2021/12/26 01:19:42;;;;;;;6.43;4.70;;;;;;;;;;143743;592;46020;-62
2021/12/26 01:22:09;;;;;;;11.75;6.10;;;;;;;;;;143737;578;49022;-61
2021/12/26 01:24:36;;;;;;;6.87;5.03;;;;;;;;;;143738;611;47012;-61
2021/12/26 01:27:04;;;;;;;8.45;5.82;;;;;;;;;;143741;575;45911;-63
2021/12/26 01:29:31;;;;;;;7.28;5.68;;;;;;;;;;143742;590;46020;-63
2021/12/26 01:31:58;;;;;;;11.02;7.32;;;;;;;;;;143740;659;47020;-62
2021/12/26 01:34:26;;;;;;;10.43;7.35;;;;;;;;;;143739;578;47012;-63
2021/12/26 01:36:53;;;;;;;10.75;6.62;;;;;;;;;;143739;576;46020;-62
2021/12/26 01:39:20;;;;;;;9.35;6.37;;;;;;;;;;143744;585;45028;-63
2021/12/26 01:41:49;;;;;;;9.32;6.68;;;;;;;;;;143739;589;47020;-62
2021/12/26 01:44:16;;;;;;;7.47;5.68;;;;;;;;;;143741;572;46033;-61
2021/12/26 01:46:46;;;;;;;9.25;6.25;;;;;;;;;;143740;613;46020;-61
2021/12/26 01:49:16;;;;;;;10.32;7.80;;;;;;;;;;143743;564;46020;-62
2021/12/26 01:51:45;;;;;;;7.95;5.40;;;;;;;;;;143739;636;47021;-62
2021/12/26 01:54:15;;;;;;;7.18;5.80;;;;;;;;;;143739;601;47012;-62
2021/12/26 01:56:43;;;;;;;7.93;5.45;;;;;;;;;;143743;595;45911;-62
2021/12/26 01:59:13;;;;;;;6.65;5.00;;;;;;;;;;143744;602;46020;-62
2021/12/26 02:01:40;;;;;;;7.07;4.93;;;;;;;;;;143740;612;47020;-62
2021/12/26 02:04:07;;;;;;;9.20;5.35;;;;;;;;;;143739;601;47010;-63
2021/12/26 02:06:34;;;;;;;8.88;6.78;;;;;;;;;;143741;573;45909;-63
2021/12/26 02:09:01;;;;;;;9.85;6.85;;;;;;;;;;143744;592;46021;-63
2021/12/26 02:11:28;;;;;;;9.07;6.30;;;;;;;;;;143739;590;47020;-62
2021/12/26 02:13:55;;;;;;;9.68;6.03;;;;;;;;;;143739;590;46915;-62
2021/12/26 02:16:24;;;;;;;9.40;6.40;;;;;;;;;;143742;598;45909;-62
2021/12/26 02:18:51;;;;;;;10.75;7.00;;;;;;;;;;143743;570;46020;-61
2021/12/26 02:21:44;;;;;;;8.50;5.53;;;;;;;;;;143740;576;47020;-64
2021/12/26 02:24:25;;;;;;;11.15;6.45;;;;;;;;;;143742;599;45918;-63
2021/12/26 02:29:44;;;;;;;6.75;5.20;;;;;;;;;;143744;618;46020;-61
2021/12/26 02:32:11;;;;;;;7.62;5.50;;;;;;;;;;143740;665;47020;-62
2021/12/26 02:34:38;;;;;;;8.77;5.65;;;;;;;;;;143739;631;46914;-61
2021/12/26 02:37:05;;;;;;;9.02;6.30;;;;;;;;;;143739;585;46020;-62
2021/12/26 02:39:33;;;;;;;10.73;6.32;;;;;;;;;;143743;576;46021;-62
2021/12/26 02:42:01;;;;;;;7.55;5.72;;;;;;;;;;143739;571;47022;-62
2021/12/26 02:44:28;;;;;;;7.95;6.07;;;;;;;;;;143741;607;46010;-62
2021/12/26 02:46:55;;;;;;;8.18;6.05;;;;;;;;;;143739;570;46021;-63
2021/12/26 02:49:26;;;;;;;9.07;5.43;;;;;;;;;;143743;575;46020;-61
2021/12/26 02:51:54;;;;;;;10.00;6.20;;;;;;;;;;143738;575;48021;-61
2021/12/26 02:54:24;;;;;;;7.35;5.35;;;;;;;;;;143738;597;47010;-63
2021/12/26 02:56:51;;;;;;;7.87;6.12;;;;;;;;;;143743;570;46020;-62
2021/12/26 02:59:18;;;;;;;8.88;6.10;;;;;;;;;;143742;598;46020;-63
2021/12/26 03:01:45;;;;;;;8.27;5.32;;;;;;;;;;143737;676;48020;-62
2021/12/26 03:04:12;;;;;;;8.57;5.35;;;;;;;;;;143739;689;46020;-62
2021/12/26 03:06:59;;;;;;;6.37;5.32;;;;;;;;;;143742;581;46020;-62
2021/12/26 03:09:28;;;;;;;9.48;5.68;;;;;;;;;;143740;631;47020;-61
2021/12/26 03:11:54;;;;;;;10.45;5.43;;;;;;;;;;143739;603;47020;-61
2021/12/26 03:14:21;;;;;;;7.53;5.80;;;;;;;;;;143739;597;46021;-63
2021/12/26 03:16:50;;;;;;;7.03;5.30;;;;;;;;;;143740;611;46020;-62
2021/12/26 03:19:17;;;;;;;9.20;5.65;;;;;;;;;;143743;592;46020;-63
2021/12/26 03:21:44;;;;;;;7.82;6.05;;;;;;;;;;143739;583;47022;-61
2021/12/26 03:24:11;;;;;;;9.07;6.18;;;;;;;;;;143737;619;47010;-62
2021/12/26 03:26:38;;;;;;;6.15;5.00;;;;;;;;;;143741;655;46020;-63
2021/12/26 03:29:05;;;;;;;9.95;4.90;;;;;;;;;;143743;586;46020;-63
2021/12/26 03:31:32;;;;;;;6.30;4.65;;;;;;;;;;143741;615;47020;-62
2021/12/26 03:34:01;;;;;;;8.25;4.50;;;;;;;;;;143737;623;47010;-63
2021/12/26 03:36:28;;;;;;;8.32;4.85;;;;;;;;;;143741;572;47910;-63
2021/12/26 03:38:55;;;;;;;7.50;4.87;;;;;;;;;;143742;570;46021;-62
2021/12/26 03:41:22;;;;;;;6.82;4.85;;;;;;;;;;143739;580;47020;-62
2021/12/26 03:43:49;;;;;;;9.45;5.62;;;;;;;;;;143742;591;46010;-63
2021/12/26 03:46:16;;;;;;;6.87;5.07;;;;;;;;;;143739;578;45910;-63
2021/12/26 03:48:44;;;;;;;5.65;4.60;;;;;;;;;;143742;573;46020;-62
2021/12/26 03:51:10;;;;;;;7.00;5.65;;;;;;;;;;143739;583;47021;-62
2021/12/26 03:53:37;;;;;;;7.55;5.30;;;;;;;;;;143738;627;47010;-63
2021/12/26 03:56:05;;;;;;;7.95;5.35;;;;;;;;;;143741;587;46020;-62
2021/12/26 03:58:32;;;;;;;9.18;6.07;;;;;;;;;;143743;570;46020;-62
2021/12/26 04:00:59;;;;;;;6.78;5.30;;;;;;;;;;143738;592;47023;-63
2021/12/26 04:03:26;;;;;;;7.97;5.15;;;;;;;;;;143740;583;46028;-63
2021/12/26 04:05:53;;;;;;;7.75;5.70;;;;;;;;;;143739;627;45911;-62
2021/12/26 04:08:20;;;;;;;7.45;5.20;;;;;;;;;;143744;572;46020;-63
2021/12/26 04:10:48;;;;;;;8.95;6.30;;;;;;;;;;143739;570;47022;-62
2021/12/26 04:13:15;;;;;;;10.85;6.20;;;;;;;;;;143740;570;46011;-63
2021/12/26 04:15:42;;;;;;;7.55;5.70;;;;;;;;;;143741;620;45021;-63
2021/12/26 04:18:09;;;;;;;10.20;5.85;;;;;;;;;;143743;620;46020;-63
2021/12/26 04:20:36;;;;;;;8.10;5.75;;;;;;;;;;143738;619;47021;-63
2021/12/26 04:23:04;;;;;;;9.27;6.60;;;;;;;;;;143738;586;47010;-61
2021/12/26 04:25:31;;;;;;;8.05;5.93;;;;;;;;;;143741;614;45911;-62
2021/12/26 04:27:59;;;;;;;10.32;5.50;;;;;;;;;;143743;668;46020;-62
2021/12/26 04:30:27;;;;;;;8.30;5.25;;;;;;;;;;143740;603;47020;-62
2021/12/26 04:32:54;;;;;;;7.57;5.70;;;;;;;;;;143739;592;46029;-62
2021/12/26 04:35:22;;;;;;;8.13;5.65;;;;;;;;;;143743;578;46020;-61
2021/12/26 04:37:49;;;;;;;10.10;5.95;;;;;;;;;;143744;590;46021;-62
2021/12/26 04:40:17;;;;;;;8.98;5.57;;;;;;;;;;143739;619;47022;-62
2021/12/26 04:42:45;;;;;;;13.65;6.50;;;;;;;;;;143740;564;46010;-62
2021/12/26 04:45:14;;;;;;;7.75;5.22;;;;;;;;;;143740;597;46021;-62
2021/12/26 04:47:42;;;;;;;8.75;6.37;;;;;;;;;;143744;570;46020;-61
2021/12/26 04:50:14;;;;;;;7.78;5.10;;;;;;;;;;143740;680;47022;-63
2021/12/26 04:52:43;;;;;;;10.88;6.30;;;;;;;;;;143741;616;46010;-63
2021/12/26 04:55:12;;;;;;;9.40;5.62;;;;;;;;;;143740;597;46020;-63
2021/12/26 04:57:39;;;;;;;7.43;5.45;;;;;;;;;;143745;592;46020;-61
2021/12/26 05:00:08;;;;;;;8.00;6.10;;;;;;;;;;143739;569;47021;-63
2021/12/26 05:02:37;;;;;;;9.82;6.47;;;;;;;;;;143739;643;47010;-62
2021/12/26 05:05:05;;;;;;;8.18;6.10;;;;;;;;;;143741;625;46020;-63
2021/12/26 05:07:32;;;;;;;8.38;6.47;;;;;;;;;;143743;569;46021;-63
2021/12/26 05:09:59;;;;;;;11.73;7.25;;;;;;;;;;143738;617;47022;-61
2021/12/26 05:12:26;;;;;;;7.68;5.95;;;;;;;;;;143740;589;46011;-61
2021/12/26 05:14:54;;;;;;;9.70;6.72;;;;;;;;;;143741;633;46021;-62
2021/12/26 05:17:20;;;;;;;9.23;6.18;;;;;;;;;;143744;655;46020;-62
2021/12/26 05:19:47;;;;;;;7.40;5.50;;;;;;;;;;143741;590;47021;-62
2021/12/26 05:22:14;;;;;;;8.07;5.20;;;;;;;;;;143740;569;46021;-61
2021/12/26 05:24:41;;;;;;;10.40;7.07;;;;;;;;;;143739;573;46020;-62
2021/12/26 05:27:08;;;;;;;7.53;5.78;;;;;;;;;;143743;565;46020;-63
2021/12/26 05:29:35;;;;;;;8.70;5.00;;;;;;;;;;143740;595;47023;-62
2021/12/26 05:32:02;;;;;;;11.25;6.70;;;;;;;;;;143742;564;46012;-62
2021/12/26 05:34:29;;;;;;;7.65;5.57;;;;;;;;;;143744;576;45020;-62
2021/12/26 05:36:56;;;;;;;8.63;5.75;;;;;;;;;;143745;598;46021;-63
2021/12/26 05:39:23;;;;;;;9.77;6.70;;;;;;;;;;143740;584;47020;-61
2021/12/26 05:41:50;;;;;;;8.55;6.85;;;;;;;;;;143739;605;47012;-63
2021/12/26 05:44:17;;;;;;;8.00;5.93;;;;;;;;;;143738;571;46021;-63
2021/12/26 05:46:45;;;;;;;10.93;6.00;;;;;;;;;;143745;587;45020;-62
2021/12/26 05:49:12;;;;;;;9.02;5.40;;;;;;;;;;143740;599;47020;-62
2021/12/26 05:51:42;;;;;;;7.40;5.43;;;;;;;;;;143741;585;46012;-62
2021/12/26 05:54:10;;;;;;;11.25;5.78;;;;;;;;;;143740;623;46020;-63
2021/12/26 05:56:37;;;;;;;7.18;5.60;;;;;;;;;;143745;599;46020;-62
2021/12/26 05:59:04;;;;;;;7.45;5.70;;;;;;;;;;143739;630;47021;-63
2021/12/26 06:01:31;;;;;;;8.40;6.20;;;;;;;;;;143740;601;47012;-62
2021/12/26 06:03:58;;;;;;;8.82;6.62;;;;;;;;;;143741;564;46020;-62
2021/12/26 06:06:25;;;;;;;9.05;6.62;;;;;;;;;;143745;585;45021;-63
2021/12/26 06:08:52;;;;;;;10.15;6.25;;;;;;;;;;143739;569;47020;-63
2021/12/26 06:11:20;;;;;;;10.00;5.85;;;;;;;;;;143739;622;47012;-62
2021/12/26 06:13:47;;;;;;;9.35;5.85;;;;;;;;;;143739;580;46021;-62
2021/12/26 06:16:14;;;;;;;10.82;6.82;;;;;;;;;;143744;579;46020;-64
2021/12/26 06:18:40;;;;;;;9.80;6.35;;;;;;;;;;143742;594;47020;-64
2021/12/26 06:21:08;;;;;;;9.75;6.62;;;;;;;;;;143741;585;47012;-63
2021/12/26 06:23:35;;;;;;;14.30;7.60;;;;;;;;;;143744;593;46018;-63
2021/12/26 06:26:02;;;;;;;9.82;6.57;;;;;;;;;;143743;597;46020;-63
2021/12/26 06:28:29;;;;;;;9.73;6.90;;;;;;;;;;143740;596;47021;-63
2021/12/26 06:30:56;;;;;;;13.52;7.10;;;;;;;;;;143741;590;47012;-62
2021/12/26 06:33:23;;;;;;;10.68;7.12;;;;;;;;;;143743;570;45020;-63
2021/12/26 06:35:50;;;;;;;11.10;6.62;;;;;;;;;;143745;593;46020;-64
2021/12/26 06:38:17;;;;;;;10.10;5.97;;;;;;;;;;143740;661;47022;-63
2021/12/26 06:40:44;;;;;;;8.18;5.78;;;;;;;;;;143742;569;46012;-63
2021/12/26 06:43:11;;;;;;;8.60;5.75;;;;;;;;;;143745;566;45913;-62
2021/12/26 06:45:38;;;;;;;10.65;6.40;;;;;;;;;;143742;603;46020;-63
2021/12/26 06:48:07;;;;;;;10.30;6.75;;;;;;;;;;143741;594;47020;-62
2021/12/26 06:50:35;;;;;;;11.93;6.95;;;;;;;;;;143740;569;46917;-62
2021/12/26 06:53:02;;;;;;;8.45;5.53;;;;;;;;;;143743;611;46020;-62
2021/12/26 06:55:29;;;;;;;9.32;5.55;;;;;;;;;;143745;616;46020;-64
2021/12/26 06:57:56;;;;;;;9.77;5.32;;;;;;;;;;143742;618;47021;-63
2021/12/26 07:00:23;;;;;;;8.50;5.65;;;;;;;;;;143740;605;46918;-63
2021/12/26 07:02:50;;;;;;;12.30;5.87;;;;;;;;;;143741;598;46913;-63
2021/12/26 07:05:17;;;;;;;8.85;5.65;;;;;;;;;;143745;589;46020;-62
2021/12/26 07:07:44;;;;;;;5.62;4.65;;;;;;;;;;143742;659;47023;-64
2021/12/26 07:10:11;;;;;;;8.82;5.20;;;;;;;;;;143742;624;46028;-64
2021/12/26 07:12:38;;;;;;;6.65;4.70;;;;;;;;;;143743;594;46913;-62
2021/12/26 07:15:06;;;;;;;11.25;4.75;;;;;;;;;;143743;657;46020;-62
2021/12/26 07:17:33;;;;;;;7.05;4.60;;;;;;;;;;143740;569;48020;-65
2021/12/26 07:20:00;;;;;;;7.55;4.53;;;;;;;;;;143742;589;46013;-62
2021/12/26 07:22:27;;;;;;;6.03;4.10;;;;;;;;;;143744;706;46020;-62
2021/12/26 07:24:54;;;;;;;9.82;4.60;;;;;;;;;;143745;641;46020;-62
2021/12/26 07:27:22;;;;;;;10.13;6.50;;;;;;;;;;143742;614;47021;-64
2021/12/26 07:29:49;;;;;;;14.57;7.03;;;;;;;;;;143744;583;46012;-64
2021/12/26 07:32:16;;;;;;;11.20;6.75;;;;;;;;;;143742;572;45913;-64
2021/12/26 07:34:43;;;;;;;9.13;6.30;;;;;;;;;;143745;729;46020;-62
2021/12/26 07:37:10;;;;;;;8.65;6.00;;;;;;;;;;143741;581;47023;-64
2021/12/26 07:39:38;;;;;;;9.38;6.50;;;;;;;;;;143742;585;46025;-64
2021/12/26 07:42:05;;;;;;;10.05;6.90;;;;;;;;;;143743;623;45021;-63
2021/12/26 07:44:33;;;;;;;9.85;6.55;;;;;;;;;;143742;567;46021;-63
2021/12/26 07:46:59;;;;;;;13.55;9.60;;;;;;;;;;143740;570;47022;-65
2021/12/26 07:49:27;;;;;;;15.32;10.88;;;;;;;;;;143741;572;46021;-64
2021/12/26 07:51:56;;;;;;;17.02;11.30;;;;;;;;;;143742;606;45913;-64
2021/12/26 07:54:24;;;;;;;13.93;9.77;;;;;;;;;;143747;573;45020;-64
2021/12/26 07:56:55;;;;;;;10.23;7.22;;;;;;;;;;143741;624;47022;-64
2021/12/26 07:59:22;;;;;;;15.38;8.90;;;;;;;;;;143741;566;47013;-63
2021/12/26 08:01:49;;;;;;;10.95;7.65;;;;;;;;;;143740;714;46020;-63
2021/12/26 08:04:17;;;;;;;11.82;8.20;;;;;;;;;;143746;564;46020;-64
2021/12/26 08:06:44;;;;;;;13.93;8.88;;;;;;;;;;143743;591;46023;-65
2021/12/26 08:09:10;;;;;;;11.55;8.40;;;;;;;;;;143743;605;46012;-64
2021/12/26 08:11:38;;;;;;;16.23;10.18;;;;;;;;;;143737;573;46021;-63
2021/12/26 08:14:05;;;;;;;14.95;10.02;;;;;;;;;;143745;564;46021;-65
2021/12/26 08:16:32;;;;;;;14.73;9.98;;;;;;;;;;143742;624;47020;-64
2021/12/26 08:18:59;;;;;;;12.48;9.88;;;;;;;;;;143742;602;46013;-64
2021/12/26 08:21:26;;;;;;;14.13;10.85;;;;;;;;;;143743;593;45913;-65
2021/12/26 08:23:53;;;;;;;14.00;8.95;;;;;;;;;;143746;615;46020;-63
2021/12/26 08:26:20;;;;;;;12.55;9.25;;;;;;;;;;143739;583;48022;-64
2021/12/26 08:28:47;;;;;;;15.95;8.70;;;;;;;;;;143741;593;47012;-62
2021/12/26 08:31:16;;;;;;;12.27;9.10;;;;;;;;;;143743;586;45913;-62
2021/12/26 08:33:43;;;;;;;13.75;8.93;;;;;;;;;;143746;608;46020;-64
2021/12/26 08:36:10;;;;;;;12.75;8.55;;;;;;;;;;143742;613;47020;-62
2021/12/26 08:38:39;;;;;;;11.50;7.78;;;;;;;;;;143740;582;47033;-62
2021/12/26 08:41:06;;;;;;;10.65;7.80;;;;;;;;;;143744;585;45020;-63
2021/12/26 08:43:33;;;;;;;9.27;6.80;;;;;;;;;;143745;604;46021;-63
2021/12/26 08:46:00;;;;;;;10.35;6.82;;;;;;;;;;143743;645;47020;-62
2021/12/26 08:48:28;;;;;;;11.10;6.90;;;;;;;;;;143740;611;47012;-63
2021/12/26 08:50:55;;;;;;;11.45;6.62;;;;;;;;;;143742;618;46021;-64
2021/12/26 08:53:26;;;;;;;9.35;6.10;;;;;;;;;;143744;585;46020;-64
2021/12/26 08:55:54;;;;;;;10.45;6.12;;;;;;;;;;143740;579;47038;-64
2021/12/26 08:58:22;;;;;;;9.68;5.60;;;;;;;;;;143742;579;46012;-63
2021/12/26 09:00:49;;;;;;;16.33;6.12;;;;;;;;;;143742;603;45913;-63
2021/12/26 09:03:16;;;;;;;7.78;5.55;;;;;;;;;;143745;611;46022;-63
2021/12/26 09:05:43;;;;;;;9.77;5.45;;;;;;;;;;143742;634;47021;-64
2021/12/26 09:08:10;;;;;;;10.25;5.80;;;;;;;;;;143742;617;46012;-63
2021/12/26 09:10:39;;;;;;;12.02;6.22;;;;;;;;;;143737;622;46018;-64
2021/12/26 09:13:07;;;;;;;10.77;7.10;;;;;;;;;;143745;564;46023;-64
2021/12/26 09:15:35;;;;;;;12.73;7.07;;;;;;;;;;143742;658;47018;-63
2021/12/26 09:18:02;;;;;;;18.60;8.48;;;;;;;;;;143741;587;47012;-63
2021/12/26 09:20:29;;;;;;;11.50;7.28;;;;;;;;;;143742;606;45914;-63
2021/12/26 09:22:56;;;;;;;11.57;7.35;;;;;;;;;;143745;597;46022;-64
2021/12/26 09:25:25;;;;;;;13.27;7.65;;;;;;;;;;143741;564;47018;-63
2021/12/26 09:27:52;;;;;;;13.02;7.57;;;;;;;;;;143738;638;47013;-62
2021/12/26 09:30:19;;;;;;;15.27;7.53;;;;;;;;;;143744;636;45018;-62
2021/12/26 09:32:46;;;;;;;12.75;8.07;;;;;;;;;;143746;569;46022;-63
2021/12/26 09:35:15;;;;;;;9.85;6.90;;;;;;;;;;143740;581;47018;-62
2021/12/26 09:37:43;;;;;;;14.38;8.10;;;;;;;;;;143740;598;47012;-63
2021/12/26 09:40:12;;;;;;;10.18;7.72;;;;;;;;;;143743;570;45019;-63
2021/12/26 09:42:39;;;;;;;15.50;8.32;;;;;;;;;;143745;597;46023;-64
2021/12/26 09:45:09;;;;;;;10.88;7.53;;;;;;;;;;143740;591;47018;-62
2021/12/26 09:47:37;;;;;;;14.40;8.07;;;;;;;;;;143736;580;47013;-63
2021/12/26 09:50:07;;;;;;;14.00;8.32;;;;;;;;;;143741;615;45913;-63
2021/12/26 09:52:34;;;;;;;15.07;6.70;;;;;;;;;;143746;575;45022;-63
2021/12/26 09:55:01;;;;;;;15.02;7.35;;;;;;;;;;143743;594;47019;-63
2021/12/26 09:57:29;;;;;;;12.30;7.18;;;;;;;;;;143742;609;46022;-63
2021/12/26 09:59:56;;;;;;;12.60;6.62;;;;;;;;;;143745;622;45018;-62
2021/12/26 10:02:23;;;;;;;11.38;7.15;;;;;;;;;;143744;598;46022;-62
2021/12/26 10:04:51;;;;;;;12.13;6.87;;;;;;;;;;143741;628;47019;-62
2021/12/26 10:07:23;;;;;;;11.55;7.50;;;;;;;;;;143743;667;46026;-62
2021/12/26 10:09:51;;;;;;;13.68;7.40;;;;;;;;;;143741;634;45913;-63
2021/12/26 10:12:22;;;;;;;11.88;7.65;;;;;;;;;;143744;628;46023;-62
2021/12/26 10:14:51;;;;;;;11.85;7.50;;;;;;;;;;143741;601;47018;-62
2021/12/26 10:17:23;;;;;;;12.60;6.95;;;;;;;;;;143742;662;46027;-62
2021/12/26 10:19:51;;;;;;;11.68;7.68;;;;;;;;;;143744;628;45019;-62
2021/12/26 10:22:26;;;;;;;8.90;7.20;;;;;;;;;;143746;625;45022;-62
2021/12/26 10:24:55;;;;;;;10.07;5.93;;;;;;;;;;143741;624;47018;-62
2021/12/26 10:27:26;;;;;;;10.50;6.62;;;;;;;;;;143742;590;46013;-62
2021/12/26 10:29:55;;;;;;;13.85;7.25;;;;;;;;;;143744;585;45913;-63
2021/12/26 10:32:37;;;;;;;14.57;7.32;;;;;;;;;;143746;587;45022;-63
2021/12/26 10:35:09;;;;;;;13.88;7.20;;;;;;;;;;143743;638;47018;-62
2021/12/26 10:37:39;;;;;;;16.40;7.40;;;;;;;;;;143742;606;46012;-62
2021/12/26 10:40:13;;;;;;;11.73;6.57;;;;;;;;;;143743;609;46018;-63
2021/12/26 10:42:46;;;;;;;14.48;7.35;;;;;;;;;;143745;579;46023;-63
2021/12/26 10:45:16;;;;;;;10.85;7.10;;;;;;;;;;143742;702;47018;-63
2021/12/26 10:47:54;;;;;;;11.12;6.70;;;;;;;;;;143741;600;46012;-63
2021/12/26 10:50:24;;;;;;;12.43;6.35;;;;;;;;;;143743;633;45018;-62
2021/12/26 10:52:58;;;;;;;12.55;6.90;;;;;;;;;;143742;619;46022;-63
2021/12/26 10:55:54;;;;;;;12.37;7.20;;;;;;;;;;143740;567;47019;-63
2021/12/26 10:58:23;;;;;;;11.60;7.80;;;;;;;;;;143741;585;46012;-63
2021/12/26 11:00:56;;;;;;;10.98;7.15;;;;;;;;;;143741;610;45913;-63
2021/12/26 11:03:27;;;;;;;10.63;6.55;;;;;;;;;;143743;617;46013;-63
2021/12/26 11:06:12;;;;;;;11.57;7.37;;;;;;;;;;143739;611;47018;-63
2021/12/26 11:08:44;;;;;;;14.95;8.25;;;;;;;;;;143739;586;46012;-63
2021/12/26 11:11:20;;;;;;;14.38;8.43;;;;;;;;;;143741;571;45019;-63
2021/12/26 11:13:47;;;;;;;14.18;7.47;;;;;;;;;;143742;576;46023;-62
2021/12/26 11:16:15;;;;;;;10.73;8.13;;;;;;;;;;143738;565;47018;-63
2021/12/26 11:18:43;;;;;;;11.57;7.18;;;;;;;;;;143738;618;47012;-62
2021/12/26 11:21:13;;;;;;;12.37;8.20;;;;;;;;;;143743;638;45018;-63
2021/12/26 11:23:43;;;;;;;11.82;7.55;;;;;;;;;;143743;642;46022;-63
2021/12/26 11:26:15;;;;;;;14.38;7.97;;;;;;;;;;143740;750;47019;-62
2021/12/26 11:28:45;;;;;;;15.48;9.57;;;;;;;;;;143740;592;46019;-63
2021/12/26 11:31:19;;;;;;;16.73;10.15;;;;;;;;;;143739;768;45913;-62
2021/12/26 11:33:55;;;;;;;16.48;10.63;;;;;;;;;;143744;665;45023;-63
2021/12/26 11:36:25;;;;;;;18.70;11.18;;;;;;;;;;143738;626;48028;-63
2021/12/26 11:38:54;;;;;;;14.68;10.10;;;;;;;;;;143741;710;46012;-63
2021/12/26 11:41:39;;;;;;;18.33;10.65;;;;;;;;;;143740;658;45914;-63
2021/12/26 11:44:47;;;;;;;19.62;9.75;;;;;;;;;;143744;639;46022;-62
2021/12/26 11:47:58;;;;;;;12.82;8.98;;;;;;;;;;143740;694;47019;-62
2021/12/26 11:50:54;;;;;;;16.80;9.70;;;;;;;;;;143738;634;47012;-61
2021/12/26 11:54:02;;;;;;;20.12;9.98;;;;;;;;;;143740;592;45018;-61
2021/12/26 11:57:04;;;;;;;12.00;6.82;;;;;;;;;;143743;608;46012;-62
2021/12/26 12:00:08;;;;;;;10.73;5.10;;;;;;;;;;143727;616;47018;-61
2021/12/26 12:02:55;;;;;;;10.35;5.28;;;;;;;;;;143740;606;46027;-61
2021/12/26 12:05:42;;;;;;;11.12;5.05;;;;;;;;;;143748;589;46018;-61
2021/12/26 12:08:15;;;;;;;9.93;4.80;;;;;;;;;;143758;569;45010;-62
2021/12/26 12:11:03;;;;;;;7.82;4.22;;;;;;;;;;143753;570;46020;-62
2021/12/26 12:13:50;;;;;;;14.60;4.70;;;;;;;;;;143756;755;45031;-62
2021/12/26 12:16:32;;;;;;;10.93;5.40;;;;;;;;;;143756;599;44018;-62
2021/12/26 12:19:01;;;;;;;12.45;6.30;;;;;;;;;;143756;590;45023;-62
2021/12/26 12:21:46;;;;;;;13.23;5.72;;;;;;;;;;143754;577;46020;-63
2021/12/26 12:24:23;;;;;;;16.62;9.23;;;;;;;;;;143752;564;46013;-63
2021/12/26 12:27:00;;;;;;;16.42;11.40;;;;;;;;;;143740;627;45019;-63
2021/12/26 12:29:48;;;;;;;15.38;9.65;;;;;;;;;;143728;597;46022;-63
2021/12/26 12:32:21;;;;;;;14.60;7.93;;;;;;;;;;143725;616;47020;-63
2021/12/26 12:34:55;;;;;;;11.90;7.60;;;;;;;;;;143725;569;47012;-63
2021/12/26 12:37:46;;;;;;;12.05;7.60;;;;;;;;;;143726;636;46018;-63
2021/12/26 12:40:28;;;;;;;15.90;7.12;;;;;;;;;;143728;647;46022;-63
2021/12/26 12:43:13;;;;;;;14.57;6.65;;;;;;;;;;143726;582;47018;-64
2021/12/26 12:46:14;;;;;;;14.13;6.57;;;;;;;;;;143724;611;47012;-64
2021/12/26 12:48:47;;;;;;;11.23;6.10;;;;;;;;;;143728;814;46021;-64
2021/12/26 12:51:44;;;;;;;10.90;6.55;;;;;;;;;;143729;577;46022;-64
2021/12/26 12:54:36;;;;;;;11.95;5.95;;;;;;;;;;143724;647;47019;-64
2021/12/26 12:57:05;;;;;;;11.73;6.25;;;;;;;;;;143724;628;46022;-64
2021/12/26 12:59:38;;;;;;;17.12;8.07;;;;;;;;;;143725;634;46018;-63
2021/12/26 13:02:24;;;;;;;15.50;7.93;;;;;;;;;;143729;594;46022;-64
2021/12/26 13:04:52;;;;;;;14.82;8.80;;;;;;;;;;143725;609;47018;-63
2021/12/26 13:07:30;;;;;;;16.10;8.00;;;;;;;;;;143725;595;47012;-64
2021/12/26 13:10:01;;;;;;;16.05;8.23;;;;;;;;;;143728;567;46018;-64
2021/12/26 13:12:29;;;;;;;13.60;6.90;;;;;;;;;;143731;578;46023;-64
2021/12/26 13:15:01;;;;;;;17.80;7.37;;;;;;;;;;143724;693;47020;-63
2021/12/26 13:17:42;;;;;;;13.75;6.55;;;;;;;;;;143726;584;46013;-64
2021/12/26 13:20:14;;;;;;;13.25;7.25;;;;;;;;;;143726;573;46018;-63
2021/12/26 13:22:48;;;;;;;13.77;7.40;;;;;;;;;;143723;619;47010;-63
2021/12/26 13:25:28;;;;;;;11.10;6.78;;;;;;;;;;143725;566;47019;-64
2021/12/26 13:27:57;;;;;;;11.88;6.50;;;;;;;;;;143725;600;47012;-63
2021/12/26 13:30:25;;;;;;;16.25;6.85;;;;;;;;;;143727;583;46018;-64
2021/12/26 13:32:53;;;;;;;14.70;8.05;;;;;;;;;;143728;594;46023;-63
2021/12/26 13:35:30;;;;;;;17.27;8.05;;;;;;;;;;143726;608;47018;-63
2021/12/26 13:37:58;;;;;;;13.55;7.87;;;;;;;;;;143725;570;47010;-63
2021/12/26 13:40:25;;;;;;;15.50;7.40;;;;;;;;;;143728;610;46018;-63
2021/12/26 13:42:52;;;;;;;12.65;7.18;;;;;;;;;;143729;595;46022;-64
2021/12/26 13:45:30;;;;;;;10.13;6.95;;;;;;;;;;143725;565;47020;-64
2021/12/26 13:47:57;;;;;;;11.63;7.68;;;;;;;;;;143725;584;47011;-63
2021/12/26 13:50:24;;;;;;;14.95;7.50;;;;;;;;;;143724;575;46018;-63
2021/12/26 13:53:07;;;;;;;18.77;7.70;;;;;;;;;;143726;641;46022;-64
2021/12/26 13:55:40;;;;;;;13.95;7.78;;;;;;;;;;143726;609;47033;-63
2021/12/26 13:58:12;;;;;;;15.05;7.87;;;;;;;;;;143724;611;47010;-64
2021/12/26 14:00:54;;;;;;;17.12;7.37;;;;;;;;;;143724;595;46028;-63
2021/12/26 14:03:21;;;;;;;13.13;7.07;;;;;;;;;;143720;569;46023;-64
2021/12/26 14:05:49;;;;;;;13.43;7.28;;;;;;;;;;143723;577;47020;-63
2021/12/26 14:08:22;;;;;;;17.42;7.97;;;;;;;;;;143728;595;47010;-63
2021/12/26 14:11:06;;;;;;;10.13;6.82;;;;;;;;;;143727;587;46019;-64
2021/12/26 14:13:50;;;;;;;16.07;7.47;;;;;;;;;;143729;646;46022;-64
2021/12/26 14:16:29;;;;;;;11.90;7.27;;;;;;;;;;143725;578;47019;-63
2021/12/26 14:19:08;;;;;;;13.00;6.62;;;;;;;;;;143727;628;46917;-64
2021/12/26 14:21:55;;;;;;;14.38;7.43;;;;;;;;;;143728;574;46018;-63
2021/12/26 14:24:24;;;;;;;15.45;7.32;;;;;;;;;;143728;573;46024;-63
2021/12/26 14:26:54;;;;;;;17.95;7.37;;;;;;;;;;143724;614;47018;-63
2021/12/26 14:29:24;;;;;;;13.90;6.87;;;;;;;;;;143726;580;46010;-62
2021/12/26 14:31:56;;;;;;;14.82;7.25;;;;;;;;;;143728;577;46018;-63
2021/12/26 14:34:28;;;;;;;14.77;7.15;;;;;;;;;;143727;646;46022;-64
2021/12/26 14:37:07;;;;;;;14.27;7.05;;;;;;;;;;143724;693;47018;-63
2021/12/26 14:39:42;;;;;;;13.98;5.95;;;;;;;;;;143724;686;47010;-63
2021/12/26 14:42:14;;;;;;;12.10;5.95;;;;;;;;;;143726;605;46018;-64
2021/12/26 14:44:49;;;;;;;16.17;7.15;;;;;;;;;;143727;610;46022;-63
2021/12/26 14:47:17;;;;;;;;;;;;;;;;;;143730;978;47019;-63
2021/12/26 14:49:50;;;;;;;14.20;6.25;;;;;;;;;;143731;565;46022;-63
2021/12/26 14:52:19;;;;;;;12.13;6.70;;;;;;;;;;143728;589;46018;-64
2021/12/26 14:54:52;;;;;;;13.82;6.57;;;;;;;;;;143728;578;46023;-63
2021/12/26 14:57:30;;;;;;;13.23;5.85;;;;;;;;;;143725;570;47018;-63